Time;durP1;ratioP1;P1;durP2;ratioP2;P2;SDS_P1;SDS_P2;PMS_P1;PMS_P2;Temp;Humidity;BMP_temperature;BMP_pressure;BME280_temperature;BME280_humidity;BME280_pressure;Samples;Min_cycle;Max_cycle;Signal;HPM_P1;HPM_P2
2022/05/19 00:06:46;;;;;;;11.02;4.47;;;14.30;99.90;;;;;;6273343;22;20340;-84
2022/05/19 00:09:33;;;;;;;6.53;4.32;;;14.30;99.90;;;;;;6250659;22;20079;-86
2022/05/19 00:12:22;;;;;;;5.47;4.30;;;14.20;99.90;;;;;;6274708;22;20051;-86
2022/05/19 00:15:11;;;;;;;5.75;3.88;;;14.20;99.90;;;;;;6273171;22;20024;-86
2022/05/19 00:17:58;;;;;;;6.90;4.75;;;14.20;99.90;;;;;;6272909;22;20028;-85
2022/05/19 00:20:47;;;;;;;8.27;4.60;;;14.10;99.90;;;;;;6273653;22;20054;-85
2022/05/19 00:23:34;;;;;;;7.40;4.68;;;13.90;99.90;;;;;;6271461;22;20024;-86
2022/05/19 00:26:21;;;;;;;5.78;4.80;;;13.90;99.90;;;;;;6274181;22;20028;-86
2022/05/19 00:29:10;;;;;;;5.75;4.72;;;13.80;99.90;;;;;;6271678;22;20165;-86
2022/05/19 00:31:58;;;;;;;4.70;4.30;;;13.80;99.90;;;;;;6250081;22;20493;-84
2022/05/19 00:34:45;;;;;;;7.10;4.70;;;13.90;99.90;;;;;;6252512;22;20051;-83
2022/05/19 00:37:33;;;;;;;7.80;4.70;;;14.00;99.90;;;;;;6272772;22;20081;-84
2022/05/19 00:40:22;;;;;;;9.70;5.15;;;14.00;99.90;;;;;;6271057;22;20048;-84
2022/05/19 00:43:09;;;;;;;8.38;5.55;;;14.00;99.90;;;;;;6273538;22;20120;-84
2022/05/19 00:46:07;;;;;;;8.10;5.60;;;14.10;99.90;;;;;;6272232;22;20019;-84
2022/05/19 00:49:14;;;;;;;9.43;5.95;;;14.00;99.90;;;;;;6251583;22;20427;-84
2022/05/19 00:52:09;;;;;;;6.93;5.40;;;13.90;99.90;;;;;;6251932;22;20122;-84
2022/05/19 00:55:10;;;;;;;7.20;4.97;;;13.90;99.90;;;;;;6275729;22;20121;-84
2022/05/19 00:58:03;;;;;;;8.55;5.85;;;13.80;99.90;;;;;;6273689;22;20031;-85
2022/05/19 01:00:50;;;;;;;7.47;5.57;;;13.70;99.90;;;;;;6275850;22;20073;-84
2022/05/19 01:03:46;;;;;;;7.32;5.35;;;13.50;99.90;;;;;;6274267;22;20027;-84
2022/05/19 01:06:37;;;;;;;8.10;5.70;;;13.50;99.90;;;;;;6253334;22;20083;-84
2022/05/19 01:09:25;;;;;;;8.32;5.35;;;13.40;99.90;;;;;;6274798;22;20391;-84
2022/05/19 01:12:12;;;;;;;7.60;4.90;;;13.40;99.90;;;;;;6253358;22;20138;-85
2022/05/19 01:15:01;;;;;;;7.35;5.30;;;13.30;99.90;;;;;;6252343;22;20054;-85
2022/05/19 01:17:49;;;;;;;7.30;6.03;;;13.20;99.90;;;;;;6275317;22;20560;-84
2022/05/19 01:20:38;;;;;;;9.63;5.80;;;13.20;99.90;;;;;;6276646;22;20454;-84
2022/05/19 01:23:43;;;;;;;12.85;6.10;;;13.10;99.90;;;;;;6275075;22;20165;-85
2022/05/19 01:26:38;;;;;;;8.68;5.00;;;13.10;99.90;;;;;;6277833;22;20419;-85
2022/05/19 01:29:28;;;;;;;9.02;5.28;;;13.10;99.90;;;;;;6274500;22;20058;-84
2022/05/19 01:32:27;;;;;;;8.02;4.78;;;13.20;99.90;;;;;;6275253;22;20085;-85
2022/05/19 01:35:14;;;;;;;7.82;4.75;;;13.20;99.90;;;;;;6276426;22;20028;-85
2022/05/19 01:38:05;;;;;;;5.70;4.22;;;13.20;99.90;;;;;;6276264;22;20032;-84
2022/05/19 01:41:09;;;;;;;6.22;4.65;;;13.10;99.90;;;;;;6277543;22;20081;-84
2022/05/19 01:44:19;;;;;;;10.27;4.65;;;13.10;99.90;;;;;;6254341;22;20098;-85
2022/05/19 01:47:24;;;;;;;6.28;4.85;;;13.00;99.90;;;;;;6254712;22;20078;-84
2022/05/19 01:50:31;;;;;;;5.45;4.45;;;13.10;99.90;;;;;;6274744;22;20027;-85
2022/05/19 01:53:27;;;;;;;7.90;4.90;;;13.00;99.90;;;;;;6273380;22;20066;-85
2022/05/19 01:56:17;;;;;;;9.25;4.80;;;12.90;99.90;;;;;;6255333;22;20346;-85
2022/05/19 01:59:19;;;;;;;6.88;4.78;;;13.00;99.90;;;;;;6273760;22;20024;-85
2022/05/19 02:02:11;;;;;;;7.95;5.03;;;12.90;99.90;;;;;;6274500;22;20112;-84
2022/05/19 02:05:26;;;;;;;3.97;3.63;;;12.90;99.90;;;;;;6251600;22;20019;-85
2022/05/19 02:08:23;;;;;;;6.22;4.03;;;13.20;99.90;;;;;;6272802;22;20113;-85
2022/05/19 02:11:20;;;;;;;8.32;3.60;;;13.30;99.90;;;;;;6275386;22;20020;-85
2022/05/19 02:14:14;;;;;;;9.68;4.20;;;13.20;99.90;;;;;;6272378;22;20020;-85
2022/05/19 02:17:10;;;;;;;4.18;3.60;;;13.20;99.90;;;;;;6274032;22;20028;-85
2022/05/19 02:20:04;;;;;;;5.85;3.67;;;13.20;99.90;;;;;;6273705;22;20131;-85
2022/05/19 02:22:52;;;;;;;5.57;4.30;;;13.20;99.90;;;;;;6274654;22;20047;-85
2022/05/19 02:25:48;;;;;;;5.57;3.85;;;13.00;99.90;;;;;;6251656;22;20112;-84
2022/05/19 02:28:56;;;;;;;4.22;3.83;;;13.00;99.90;;;;;;6274192;22;20077;-85
2022/05/19 02:31:44;;;;;;;3.95;3.55;;;13.00;99.90;;;;;;6273443;22;20020;-85
2022/05/19 02:34:31;;;;;;;6.22;3.78;;;13.10;99.90;;;;;;6273166;22;20092;-84
2022/05/19 02:37:19;;;;;;;7.05;4.53;;;13.10;99.90;;;;;;6275697;22;20047;-85
2022/05/19 02:40:07;;;;;;;9.20;5.18;;;13.10;99.90;;;;;;6274102;22;20051;-84
2022/05/19 02:42:54;;;;;;;8.82;4.78;;;13.10;99.90;;;;;;6273312;22;20097;-85
2022/05/19 02:45:43;;;;;;;7.53;3.70;;;13.00;99.90;;;;;;6271826;22;20055;-84
2022/05/19 02:48:32;;;;;;;5.15;4.20;;;12.90;99.90;;;;;;6272779;22;20143;-83
2022/05/19 02:51:20;;;;;;;6.50;4.10;;;12.80;99.90;;;;;;6273429;22;20342;-84
2022/05/19 02:54:12;;;;;;;6.43;4.95;;;12.70;99.90;;;;;;6274387;22;20020;-84
2022/05/19 02:56:59;;;;;;;7.32;4.30;;;12.80;99.90;;;;;;6273537;22;20054;-84
2022/05/19 02:59:48;;;;;;;7.18;4.30;;;12.70;99.90;;;;;;6253352;22;20026;-84
2022/05/19 03:02:35;;;;;;;6.93;4.70;;;12.60;99.90;;;;;;6272491;22;20158;-84
2022/05/19 03:05:29;;;;;;;7.30;4.50;;;12.60;99.90;;;;;;6275060;22;20443;-85
2022/05/19 03:08:28;;;;;;;5.15;3.80;;;12.50;99.90;;;;;;6272796;22;20091;-84
2022/05/19 03:11:17;;;;;;;6.50;3.95;;;12.60;99.90;;;;;;6273992;22;20081;-84
2022/05/19 03:14:04;;;;;;;5.03;3.53;;;12.70;99.90;;;;;;6272179;22;20453;-85
2022/05/19 03:16:52;;;;;;;5.78;4.35;;;12.70;99.90;;;;;;6274575;22;20032;-84
2022/05/19 03:19:41;;;;;;;7.15;3.95;;;12.70;99.90;;;;;;6273017;22;20130;-84
2022/05/19 03:22:28;;;;;;;5.35;3.60;;;12.80;99.90;;;;;;6273545;22;20149;-83
2022/05/19 03:25:16;;;;;;;7.47;3.30;;;12.70;99.90;;;;;;6273372;22;20284;-84
2022/05/19 03:28:04;;;;;;;4.85;3.60;;;12.70;99.90;;;;;;6274664;22;20028;-84
2022/05/19 03:30:51;;;;;;;5.65;3.95;;;12.60;99.90;;;;;;6274138;22;20095;-84
2022/05/19 03:33:39;;;;;;;5.00;3.72;;;12.50;99.90;;;;;;6275292;22;20249;-85
2022/05/19 03:36:26;;;;;;;6.07;4.18;;;12.40;99.90;;;;;;6275506;22;20410;-84
2022/05/19 03:39:13;;;;;;;5.90;4.47;;;12.30;99.90;;;;;;6230923;22;20438;-85
2022/05/19 03:42:00;;;;;;;5.22;3.97;;;12.20;99.90;;;;;;6253865;22;20085;-85
2022/05/19 03:44:50;;;;;;;5.20;4.22;;;12.30;99.90;;;;;;6275302;22;20030;-85
2022/05/19 03:47:37;;;;;;;5.85;3.97;;;12.30;99.90;;;;;;6274875;22;20023;-84
2022/05/19 03:50:24;;;;;;;6.78;3.75;;;12.40;99.90;;;;;;6253741;22;20103;-84
2022/05/19 03:53:14;;;;;;;8.38;4.43;;;12.30;99.90;;;;;;6277023;22;20036;-85
2022/05/19 03:56:02;;;;;;;6.03;4.40;;;12.20;99.90;;;;;;6276077;22;20023;-84
2022/05/19 03:58:50;;;;;;;7.70;4.47;;;12.10;99.90;;;;;;6281306;22;20306;-85
2022/05/19 04:01:37;;;;;;;6.85;5.40;;;12.00;99.90;;;;;;6257446;22;20111;-85
2022/05/19 04:04:24;;;;;;;6.38;4.72;;;12.10;99.90;;;;;;6282784;22;20107;-86
2022/05/19 04:07:12;;;;;;;9.82;5.03;;;12.20;99.90;;;;;;6280588;22;20031;-86
2022/05/19 04:09:59;;;;;;;7.88;5.57;;;12.40;99.90;;;;;;6267164;22;20024;-85
2022/05/19 04:12:46;;;;;;;9.45;6.30;;;12.60;99.90;;;;;;6281309;22;20073;-86
2022/05/19 04:15:33;;;;;;;8.80;5.88;;;12.70;99.90;;;;;;6277285;22;20024;-86
2022/05/19 04:18:23;;;;;;;10.85;6.25;;;12.80;99.90;;;;;;6278260;22;20020;-85
2022/05/19 04:21:13;;;;;;;8.48;5.72;;;12.80;99.90;;;;;;6253706;22;20450;-85
2022/05/19 04:24:04;;;;;;;8.63;6.05;;;12.80;99.90;;;;;;6273583;22;20081;-85
2022/05/19 04:26:51;;;;;;;11.07;6.30;;;12.90;99.90;;;;;;6275713;22;20020;-85
2022/05/19 04:29:38;;;;;;;8.20;5.03;;;12.90;99.90;;;;;;6277150;22;20055;-85
2022/05/19 04:32:28;;;;;;;6.45;4.95;;;12.90;99.90;;;;;;6252350;22;20153;-84
2022/05/19 04:35:18;;;;;;;7.15;5.45;;;13.10;99.90;;;;;;6253113;22;20128;-85
2022/05/19 04:38:13;;;;;;;5.68;4.63;;;13.10;99.90;;;;;;6274363;22;20027;-84
2022/05/19 04:41:04;;;;;;;8.50;5.68;;;13.10;99.90;;;;;;6278775;22;20023;-85
2022/05/19 04:43:53;;;;;;;9.55;6.00;;;13.20;99.90;;;;;;6235499;22;20023;-85
2022/05/19 04:46:40;;;;;;;9.85;5.80;;;13.20;99.90;;;;;;6253045;22;20062;-85
2022/05/19 04:49:30;;;;;;;8.45;5.60;;;13.20;99.90;;;;;;6273610;22;20383;-84
2022/05/19 04:52:17;;;;;;;10.10;5.70;;;13.30;99.90;;;;;;6275828;22;20120;-82
2022/05/19 04:55:09;;;;;;;6.85;5.00;;;13.20;99.90;;;;;;6275116;22;20086;-83
2022/05/19 04:57:56;;;;;;;7.35;5.15;;;13.30;99.90;;;;;;6251595;22;20092;-84
2022/05/19 05:00:49;;;;;;;9.77;5.18;;;13.40;99.90;;;;;;6251373;22;20452;-83
2022/05/19 05:03:36;;;;;;;15.32;5.63;;;13.50;99.90;;;;;;6272092;22;20019;-84
2022/05/19 05:06:24;;;;;;;8.95;4.72;;;13.60;99.90;;;;;;6254158;22;20024;-82
2022/05/19 05:09:11;;;;;;;8.00;4.90;;;13.80;99.90;;;;;;6275341;22;20032;-84
2022/05/19 05:12:01;;;;;;;8.38;4.68;;;14.00;99.90;;;;;;6273827;22;20085;-84
2022/05/19 05:14:48;;;;;;;7.20;4.63;;;14.20;99.90;;;;;;6255739;22;20566;-83
2022/05/19 05:17:35;;;;;;;7.38;4.68;;;14.60;99.90;;;;;;6276457;22;20028;-84
2022/05/19 05:20:22;;;;;;;8.38;4.10;;;14.70;99.90;;;;;;6276373;22;20121;-81
2022/05/19 05:23:11;;;;;;;5.30;2.95;;;15.00;99.90;;;;;;6275712;22;20073;-81
2022/05/19 05:26:02;;;;;;;5.10;3.00;;;15.20;99.90;;;;;;6254120;22;20098;-82
2022/05/19 05:28:49;;;;;;;4.30;3.50;;;15.40;99.90;;;;;;6273950;22;20074;-79
2022/05/19 05:31:36;;;;;;;4.95;3.60;;;15.60;99.90;;;;;;6273430;22;20175;-78
2022/05/19 05:34:24;;;;;;;5.53;3.58;;;15.70;99.90;;;;;;6277323;22;20091;-80
2022/05/19 05:37:11;;;;;;;4.72;3.70;;;15.70;99.90;;;;;;6274499;22;20042;-80
2022/05/19 05:39:58;;;;;;;6.70;3.80;;;15.70;99.90;;;;;;6252204;22;20024;-80
2022/05/19 05:42:45;;;;;;;7.22;3.90;;;15.80;99.90;;;;;;6274948;22;20093;-81
2022/05/19 05:45:32;;;;;;;6.25;3.70;;;15.90;99.90;;;;;;6275167;22;20129;-81
2022/05/19 05:48:20;;;;;;;7.00;3.63;;;16.10;99.90;;;;;;6273381;22;20055;-80
2022/05/19 05:51:09;;;;;;;8.00;3.80;;;16.10;99.90;;;;;;6269234;22;20031;-81
2022/05/19 05:53:57;;;;;;;6.93;4.00;;;16.20;99.90;;;;;;6270366;22;20376;-81
2022/05/19 05:56:44;;;;;;;4.30;3.53;;;16.20;99.90;;;;;;6251678;22;20322;-81
2022/05/19 05:59:31;;;;;;;4.57;3.13;;;16.20;99.90;;;;;;6253447;22;20051;-83
2022/05/19 06:02:22;;;;;;;7.85;3.63;;;16.30;99.90;;;;;;6254473;22;20311;-81
2022/05/19 06:05:11;;;;;;;5.60;3.38;;;16.50;99.90;;;;;;6273632;22;20030;-82
2022/05/19 06:08:01;;;;;;;6.15;3.15;;;16.70;99.90;;;;;;6274701;22;20027;-85
2022/05/19 06:10:50;;;;;;;4.28;3.22;;;16.80;99.90;;;;;;6273841;22;20023;-83
2022/05/19 06:13:39;;;;;;;6.30;3.22;;;17.00;99.90;;;;;;6275110;22;20027;-85
2022/05/19 06:16:28;;;;;;;8.10;3.47;;;17.20;99.90;;;;;;6275388;22;20028;-86
2022/05/19 06:19:18;;;;;;;6.78;3.17;;;17.30;99.90;;;;;;6275152;22;20024;-85
2022/05/19 06:22:07;;;;;;;3.42;3.05;;;17.50;99.90;;;;;;6252298;22;20031;-87
2022/05/19 06:24:57;;;;;;;7.35;3.70;;;17.70;99.90;;;;;;6271042;22;20088;-86
2022/05/19 06:27:49;;;;;;;6.72;3.28;;;17.90;99.90;;;;;;6248438;22;20439;-85
2022/05/19 06:30:38;;;;;;;9.05;3.33;;;18.00;99.90;;;;;;6274700;22;20093;-88
2022/05/19 06:33:34;;;;;;;9.23;3.53;;;18.10;99.90;;;;;;6277200;22;20323;-87
2022/05/19 06:36:22;;;;;;;5.22;3.65;;;18.40;99.90;;;;;;6251771;22;20035;-88
2022/05/19 06:39:12;;;;;;;5.25;3.17;;;18.60;99.90;;;;;;6251882;22;20024;-90
2022/05/19 06:42:02;;;;;;;5.18;3.38;;;18.80;99.90;;;;;;6276837;22;20020;-88
2022/05/19 06:44:50;;;;;;;6.88;2.63;;;18.90;99.90;;;;;;6276170;22;20081;-87
2022/05/19 06:47:38;;;;;;;4.28;2.95;;;19.20;99.90;;;;;;6253875;22;20020;-87
2022/05/19 06:50:25;;;;;;;3.22;2.70;;;19.50;99.90;;;;;;6277274;22;20031;-87
2022/05/19 06:53:15;;;;;;;5.20;3.10;;;19.70;99.90;;;;;;6275098;22;20031;-88
2022/05/19 06:56:08;;;;;;;6.70;3.22;;;20.20;99.90;;;;;;6254465;22;20288;-90
2022/05/19 06:58:57;;;;;;;5.93;2.80;;;20.50;99.90;;;;;;6275294;22;20023;-88
2022/05/19 07:01:45;;;;;;;4.05;2.35;;;20.60;99.30;;;;;;6276804;22;20027;-89
2022/05/19 07:04:33;;;;;;;3.80;2.35;;;21.00;97.30;;;;;;6274607;22;20081;-87
2022/05/19 07:07:21;;;;;;;3.65;2.78;;;20.90;98.00;;;;;;6277429;22;20055;-88
2022/05/19 07:10:09;;;;;;;4.57;2.85;;;21.10;96.90;;;;;;6254071;22;20020;-90
2022/05/19 07:12:59;;;;;;;4.47;2.90;;;21.20;96.50;;;;;;6277745;22;20024;-89
2022/05/19 07:15:52;;;;;;;5.57;2.45;;;21.50;94.70;;;;;;6254581;22;20038;-87
2022/05/19 07:18:39;;;;;;;7.20;2.78;;;21.80;95.60;;;;;;6274524;22;20106;-87
2022/05/19 07:21:27;;;;;;;8.93;2.65;;;22.10;92.70;;;;;;6252670;22;20051;-88
2022/05/19 07:24:17;;;;;;;3.63;2.00;;;22.20;92.30;;;;;;6273855;22;20024;-89
2022/05/19 07:27:04;;;;;;;4.25;2.20;;;22.50;91.30;;;;;;6274672;22;20024;-89
2022/05/19 07:29:55;;;;;;;2.88;2.42;;;22.80;89.70;;;;;;6279833;22;20024;-90
2022/05/19 07:32:42;;;;;;;2.92;2.10;;;23.00;91.60;;;;;;6280264;22;20023;-84
2022/05/19 07:35:29;;;;;;;6.07;2.70;;;23.60;87.40;;;;;;6273536;22;20019;-90
2022/05/19 07:38:19;;;;;;;6.70;2.05;;;23.90;84.30;;;;;;6273369;22;20661;-86
2022/05/19 07:41:08;;;;;;;6.35;2.35;;;23.80;80.50;;;;;;6273225;22;20042;-86
2022/05/19 07:44:15;;;;;;;3.25;2.13;;;23.50;79.90;;;;;;6275029;22;20023;-87
2022/05/19 07:47:03;;;;;;;2.47;2.00;;;23.60;79.70;;;;;;6250252;22;20065;-84
2022/05/19 07:49:56;;;;;;;6.55;2.25;;;23.70;80.50;;;;;;6274952;22;20031;-84
2022/05/19 07:52:44;;;;;;;4.05;2.33;;;23.90;79.90;;;;;;6274128;22;20027;-85
2022/05/19 07:55:33;;;;;;;5.43;2.55;;;23.80;77.20;;;;;;6275814;22;20209;-87
2022/05/19 07:58:22;;;;;;;3.17;2.38;;;24.10;78.70;;;;;;6278706;22;20432;-85
2022/05/19 08:01:09;;;;;;;3.22;2.20;;;24.40;75.90;;;;;;6277002;22;20020;-85
2022/05/19 08:04:00;;;;;;;6.13;2.30;;;24.40;74.20;;;;;;6274996;22;20054;-86
2022/05/19 08:06:50;;;;;;;4.93;2.50;;;24.40;75.20;;;;;;6255889;22;20026;-86
2022/05/19 08:15:55;;;;;;;4.53;2.70;;;25.60;71.80;;;;;;6275512;22;20031;-84
2022/05/19 08:18:45;;;;;;;10.00;3.08;;;25.70;69.90;;;;;;6275693;22;20037;-82
2022/05/19 08:21:33;;;;;;;6.82;2.70;;;25.40;68.90;;;;;;6275219;22;20031;-85
2022/05/19 08:24:24;;;;;;;3.47;2.40;;;25.20;72.10;;;;;;6276146;22;20023;-85
2022/05/19 08:27:11;;;;;;;9.23;2.65;;;25.00;70.90;;;;;;6278318;22;20034;-84
2022/05/19 08:30:01;;;;;;;5.07;2.75;;;25.70;71.20;;;;;;6276917;22;20077;-85
2022/05/19 08:32:48;;;;;;;5.90;2.95;;;26.10;68.50;;;;;;6255132;22;20030;-85
2022/05/19 08:35:36;;;;;;;4.45;2.80;;;26.00;68.20;;;;;;6276803;22;20024;-85
2022/05/19 08:38:24;;;;;;;3.67;2.75;;;26.20;71.20;;;;;;6276944;22;20023;-85
2022/05/19 08:41:35;;;;;;;2.75;2.40;;;26.80;69.70;;;;;;6262617;22;20027;-88
2022/05/19 08:44:31;;;;;;;8.23;2.40;;;26.70;66.20;;;;;;6279667;22;20130;-83
2022/05/19 08:47:27;;;;;;;3.47;2.38;;;26.90;68.40;;;;;;6276296;22;20016;-83
2022/05/19 08:50:33;;;;;;;5.70;2.55;;;27.50;66.30;;;;;;6283643;22;20284;-83
2022/05/19 08:53:22;;;;;;;3.42;2.53;;;27.60;66.50;;;;;;6283657;22;20031;-84
2022/05/19 08:56:19;;;;;;;9.32;2.83;;;27.30;64.50;;;;;;6281961;22;20023;-84
2022/05/19 08:59:25;;;;;;;6.35;2.70;;;27.30;65.20;;;;;;6277111;22;20089;-84
2022/05/19 09:02:27;;;;;;;8.82;2.85;;;28.40;63.40;;;;;;6282153;22;20400;-86
2022/05/19 09:05:55;;;;;;;5.07;2.30;;;28.80;64.10;;;;;;6287598;22;20098;-87
2022/05/19 09:08:48;;;;;;;5.15;2.72;;;29.10;61.60;;;;;;6285176;22;20023;-86
2022/05/19 09:11:52;;;;;;;4.70;2.40;;;29.20;60.20;;;;;;6266451;22;20039;-87
2022/05/19 09:14:42;;;;;;;5.57;2.60;;;28.80;63.10;;;;;;6292160;22;20027;-86
2022/05/19 09:17:31;;;;;;;9.20;3.00;;;28.80;60.80;;;;;;6292126;22;20023;-84
2022/05/19 09:20:24;;;;;;;5.95;2.53;;;28.40;63.30;;;;;;6290070;22;20027;-86
2022/05/19 09:23:12;;;;;;;5.40;2.60;;;28.40;62.60;;;;;;6284390;22;20028;-88
2022/05/19 09:26:24;;;;;;;7.45;2.80;;;27.90;65.00;;;;;;6283245;22;20020;-87
2022/05/19 09:29:20;;;;;;;6.22;2.80;;;28.20;64.50;;;;;;6256062;22;20078;-87
2022/05/19 09:32:15;;;;;;;6.57;2.67;;;27.80;63.70;;;;;;6281769;22;20027;-89
2022/05/19 09:35:09;;;;;;;3.83;2.17;;;28.30;66.00;;;;;;6280692;22;20043;-88
2022/05/19 09:38:08;;;;;;;8.52;2.85;;;28.50;63.10;;;;;;6288332;22;20034;-85
2022/05/19 09:41:21;;;;;;;5.63;2.77;;;28.70;63.90;;;;;;6269979;22;20023;-89
2022/05/19 09:44:16;;;;;;;5.75;2.60;;;28.60;63.10;;;;;;6264485;22;20265;-86
2022/05/19 09:47:41;;;;;;;9.25;3.15;;;29.00;63.60;;;;;;6265129;22;20028;-88
2022/05/19 09:50:31;;;;;;;3.80;2.83;;;28.80;61.40;;;;;;6186459;22;20065;-88
2022/05/19 09:53:25;;;;;;;6.90;2.60;;;29.20;61.90;;;;;;6287069;22;20023;-89
2022/05/19 09:56:23;;;;;;;5.03;2.88;;;28.90;62.10;;;;;;6262952;22;20111;-87
2022/05/19 09:59:48;;;;;;;7.90;2.53;;;28.90;62.40;;;;;;6288138;22;20461;-87
2022/05/19 10:02:46;;;;;;;5.53;2.45;;;29.30;61.80;;;;;;6287571;22;20426;-86
2022/05/19 10:06:03;;;;;;;4.95;2.70;;;29.40;60.30;;;;;;6289139;22;20030;-86
2022/05/19 10:09:06;;;;;;;4.60;2.50;;;29.50;59.20;;;;;;6286295;22;20347;-90
2022/05/19 10:12:08;;;;;;;9.77;3.50;;;29.70;58.90;;;;;;6286473;22;20038;-89
2022/05/19 10:15:15;;;;;;;5.55;2.80;;;29.50;59.50;;;;;;6264049;22;20032;-90
2022/05/19 10:18:11;;;;;;;5.90;3.13;;;30.00;57.90;;;;;;6285154;22;20034;-86
2022/05/19 10:21:24;;;;;;;9.88;3.10;;;30.10;57.60;;;;;;6283312;22;20019;-88
2022/05/19 10:24:35;;;;;;;4.95;2.95;;;30.40;57.50;;;;;;6260847;22;20024;-88
2022/05/19 10:31:08;;;;;;;4.88;2.75;;;30.70;56.10;;;;;;6275912;22;20023;-86
2022/05/19 10:34:32;;;;;;;9.15;2.70;;;30.60;53.80;;;;;;6276149;22;20393;-88
2022/05/19 10:37:30;;;;;;;3.55;2.60;;;30.50;55.60;;;;;;6269316;22;20031;-89
2022/05/19 10:40:46;;;;;;;3.65;1.90;;;30.70;53.30;;;;;;6255135;22;20027;-88
2022/05/19 10:44:01;;;;;;;7.82;2.88;;;31.30;52.10;;;;;;6273669;22;20015;-87
2022/05/19 10:47:20;;;;;;;4.63;2.40;;;31.70;51.30;;;;;;6276769;22;20020;-88
2022/05/19 10:50:32;;;;;;;4.97;2.05;;;32.20;48.30;;;;;;6275030;22;20035;-85
2022/05/19 10:53:22;;;;;;;4.55;2.10;;;32.40;45.30;;;;;;6274224;22;20140;-87
2022/05/19 10:56:37;;;;;;;3.63;2.05;;;33.00;44.70;;;;;;6274637;22;20034;-86
2022/05/19 10:59:49;;;;;;;6.53;2.40;;;34.10;42.90;;;;;;6276068;22;20112;-90
2022/05/19 11:03:20;;;;;;;5.20;1.98;;;34.70;39.40;;;;;;6277370;22;20081;-89
2022/05/19 11:06:14;;;;;;;2.40;1.70;;;35.00;39.50;;;;;;6274372;22;20031;-87
2022/05/19 11:09:04;;;;;;;4.28;1.95;;;35.70;37.60;;;;;;6275299;22;20019;-88
2022/05/19 11:12:24;;;;;;;3.70;1.80;;;35.20;36.70;;;;;;6275199;22;20082;-89
2022/05/19 11:15:25;;;;;;;2.38;1.80;;;34.20;39.00;;;;;;6227876;22;20346;-85
2022/05/19 11:18:28;;;;;;;5.85;2.15;;;33.80;39.60;;;;;;6274556;22;20032;-86
2022/05/19 11:21:38;;;;;;;5.07;1.85;;;33.60;39.40;;;;;;6273996;22;20395;-85
2022/05/19 11:28:08;;;;;;;3.58;1.90;;;34.80;36.90;;;;;;6274967;22;20020;-86
2022/05/19 11:31:35;;;;;;;5.00;2.35;;;35.00;37.50;;;;;;6275042;22;20102;-86
2022/05/19 11:34:31;;;;;;;5.10;1.80;;;35.40;36.20;;;;;;6252590;22;20091;-88
2022/05/19 11:37:33;;;;;;;6.88;2.33;;;35.80;36.10;;;;;;6276572;22;20353;-85
2022/05/19 11:40:50;;;;;;;3.33;2.10;;;36.30;36.00;;;;;;6277067;22;20454;-89
2022/05/19 11:43:46;;;;;;;2.83;1.80;;;37.20;34.60;;;;;;6273808;22;20055;-89
2022/05/19 11:46:57;;;;;;;6.00;2.15;;;36.40;33.70;;;;;;6276668;22;20032;-87
2022/05/19 11:56:16;;;;;;;4.72;2.13;;;36.80;33.20;;;;;;6273950;22;20034;-89
2022/05/19 11:59:31;;;;;;;4.57;2.45;;;35.80;32.20;;;;;;6257308;22;20042;-87
2022/05/19 12:02:26;;;;;;;4.65;2.13;;;36.70;33.20;;;;;;6274581;22;20126;-87
2022/05/19 12:05:39;;;;;;;4.65;1.95;;;37.40;33.60;;;;;;6276196;22;20039;-88
2022/05/19 12:08:35;;;;;;;4.32;2.35;;;36.60;33.30;;;;;;6276875;22;20028;-88
2022/05/19 12:11:30;;;;;;;4.10;1.98;;;36.00;33.80;;;;;;6277688;22;20024;-87
2022/05/19 12:14:27;;;;;;;4.20;2.03;;;34.90;34.60;;;;;;6274314;22;20303;-86
2022/05/19 12:17:28;;;;;;;6.63;2.10;;;33.30;35.90;;;;;;6273680;22;20398;-87
2022/05/19 12:20:42;;;;;;;3.03;1.65;;;32.40;36.10;;;;;;6275889;22;20028;-86
2022/05/19 12:23:32;;;;;;;8.52;2.08;;;32.70;37.80;;;;;;6245887;22;20417;-85
2022/05/19 12:26:28;;;;;;;6.25;2.28;;;32.60;37.80;;;;;;6273685;22;20319;-85
2022/05/19 12:29:43;;;;;;;9.15;2.20;;;32.20;37.30;;;;;;6274815;22;20362;-87
2022/05/19 12:32:36;;;;;;;6.90;2.47;;;32.70;37.00;;;;;;6253628;22;20472;-86
2022/05/19 12:35:32;;;;;;;5.75;2.08;;;32.90;38.20;;;;;;6252061;22;20023;-88
2022/05/19 12:38:30;;;;;;;6.85;2.75;;;33.20;36.20;;;;;;6273950;22;20327;-88
2022/05/19 12:41:26;;;;;;;6.95;2.33;;;34.10;35.70;;;;;;6254608;22;20032;-87
2022/05/19 12:44:35;;;;;;;3.13;1.95;;;33.00;35.30;;;;;;6274088;22;20038;-88
2022/05/19 12:47:29;;;;;;;12.30;3.40;;;32.10;37.70;;;;;;6281069;22;20034;-87
2022/05/19 12:50:20;;;;;;;4.07;2.28;;;31.60;36.70;;;;;;6277047;22;20023;-87
2022/05/19 12:53:14;;;;;;;5.43;2.35;;;31.70;37.90;;;;;;6277335;22;20019;-85
2022/05/19 12:56:04;;;;;;;7.30;1.90;;;32.10;37.60;;;;;;6257003;22;20166;-89
2022/05/19 12:59:05;;;;;;;5.30;2.10;;;32.00;36.80;;;;;;6278003;22;20093;-86
2022/05/19 13:01:57;;;;;;;3.97;2.08;;;32.20;36.10;;;;;;6253637;22;20034;-88
2022/05/19 13:04:50;;;;;;;3.83;1.98;;;31.90;35.60;;;;;;6277390;22;20034;-89
2022/05/19 13:07:49;;;;;;;7.10;2.33;;;32.20;37.20;;;;;;6275401;22;20068;-88
2022/05/19 13:10:50;;;;;;;3.03;1.80;;;32.10;36.60;;;;;;6276636;22;20493;-85
2022/05/19 13:13:50;;;;;;;5.30;2.00;;;32.30;36.70;;;;;;6275944;22;20443;-87
2022/05/19 13:16:41;;;;;;;6.50;2.60;;;32.20;36.40;;;;;;6277867;22;20051;-85
2022/05/19 13:19:36;;;;;;;7.22;2.70;;;32.40;37.00;;;;;;6276150;22;20023;-85
2022/05/19 13:22:36;;;;;;;5.25;2.10;;;32.60;35.10;;;;;;6279557;22;20073;-84
2022/05/19 13:25:25;;;;;;;3.45;1.98;;;32.70;35.30;;;;;;6275802;22;20429;-85
2022/05/19 13:31:30;;;;;;;7.50;2.10;;;31.80;37.80;;;;;;6275335;22;20098;-88
2022/05/19 13:34:19;;;;;;;5.80;2.28;;;31.90;37.40;;;;;;6275464;22;20023;-85
2022/05/19 13:37:09;;;;;;;7.20;2.30;;;32.40;35.70;;;;;;6275066;22;20015;-85
2022/05/19 13:40:10;;;;;;;5.65;2.00;;;32.80;36.10;;;;;;6253741;22;20019;-89
2022/05/19 13:43:05;;;;;;;5.10;2.17;;;33.30;35.60;;;;;;6254570;22;20399;-87
2022/05/19 13:45:56;;;;;;;5.97;2.20;;;33.20;35.10;;;;;;6252976;22;20194;-85
2022/05/19 13:49:00;;;;;;;3.67;2.15;;;33.10;35.30;;;;;;6277307;22;20138;-89
2022/05/19 13:51:49;;;;;;;6.65;2.33;;;33.70;35.30;;;;;;6276063;22;20023;-86
2022/05/19 13:54:43;;;;;;;4.43;1.90;;;33.10;34.80;;;;;;6265220;22;20024;-87
2022/05/19 13:57:34;;;;;;;4.47;1.98;;;33.00;36.40;;;;;;6285030;22;20050;-84
2022/05/19 14:00:25;;;;;;;6.20;2.20;;;33.40;36.00;;;;;;6285768;22;20020;-86
2022/05/19 14:03:12;;;;;;;7.10;2.53;;;33.00;35.70;;;;;;6285674;22;20042;-88
2022/05/19 14:06:00;;;;;;;5.53;2.15;;;33.00;35.10;;;;;;6274663;22;20034;-88
2022/05/19 14:08:48;;;;;;;7.72;2.17;;;33.20;36.50;;;;;;6290192;22;20024;-87
2022/05/19 14:11:39;;;;;;;5.85;2.20;;;34.20;35.40;;;;;;6281498;22;20035;-87
2022/05/19 14:14:30;;;;;;;9.95;2.30;;;33.30;35.70;;;;;;6289876;22;20339;-87
2022/05/19 14:17:36;;;;;;;5.78;2.25;;;32.60;36.10;;;;;;6290930;22;20073;-86
2022/05/19 14:20:33;;;;;;;5.05;1.98;;;32.10;37.00;;;;;;6278952;22;20272;-88
2022/05/19 14:23:46;;;;;;;8.85;2.90;;;31.30;36.70;;;;;;6253346;22;20028;-84
2022/05/19 14:27:06;;;;;;;3.78;2.13;;;31.00;40.70;;;;;;6274791;22;20134;-87
2022/05/19 14:29:56;;;;;;;4.20;2.38;;;31.60;39.60;;;;;;6205888;22;20032;-86
2022/05/19 14:33:00;;;;;;;6.43;2.50;;;31.90;38.90;;;;;;6254038;22;20024;-87
2022/05/19 14:36:00;;;;;;;4.10;2.30;;;32.20;38.90;;;;;;6275498;22;20031;-84
2022/05/19 14:39:20;;;;;;;7.90;2.58;;;32.80;38.50;;;;;;6254593;22;20030;-87
2022/05/19 14:45:21;;;;;;;5.75;2.78;;;34.70;34.50;;;;;;6274268;22;20024;-87
2022/05/19 14:48:18;;;;;;;7.72;2.58;;;34.00;35.70;;;;;;6274729;22;20606;-87
2022/05/19 14:51:17;;;;;;;4.90;2.28;;;33.30;35.60;;;;;;6275570;22;20082;-87
2022/05/19 14:54:09;;;;;;;7.35;2.35;;;32.50;36.80;;;;;;6254080;22;20419;-88
2022/05/19 14:57:00;;;;;;;7.90;2.90;;;32.30;36.70;;;;;;6274298;22;20019;-87
2022/05/19 15:00:00;;;;;;;2.65;2.20;;;32.10;36.90;;;;;;6275259;22;20023;-84
2022/05/19 15:02:50;;;;;;;3.90;2.50;;;31.90;36.90;;;;;;6254824;22;20051;-88
2022/05/19 15:05:39;;;;;;;7.63;2.60;;;32.10;38.70;;;;;;6253549;22;20078;-86
2022/05/19 15:08:29;;;;;;;4.43;2.53;;;31.90;38.90;;;;;;6252318;22;20119;-87
2022/05/19 15:11:17;;;;;;;5.38;2.33;;;31.90;37.00;;;;;;6277241;22;20031;-86
2022/05/19 15:14:05;;;;;;;8.55;2.40;;;31.90;37.50;;;;;;6254051;22;20034;-86
2022/05/19 15:16:54;;;;;;;5.30;2.33;;;31.90;37.40;;;;;;6276397;22;20028;-87
2022/05/19 15:19:47;;;;;;;4.05;2.30;;;32.20;36.80;;;;;;6272936;22;20142;-85
2022/05/19 15:22:38;;;;;;;5.68;2.50;;;32.60;35.60;;;;;;6251764;22;20101;-86
2022/05/19 15:25:33;;;;;;;3.60;2.40;;;32.80;34.70;;;;;;6274213;22;20114;-87
2022/05/19 15:28:21;;;;;;;7.13;2.30;;;32.60;35.20;;;;;;6275696;22;20039;-86
2022/05/19 15:31:14;;;;;;;4.32;2.10;;;33.10;34.80;;;;;;6276282;22;20024;-85
2022/05/19 15:34:01;;;;;;;5.65;2.35;;;33.20;35.40;;;;;;6273701;22;20019;-87
2022/05/19 15:36:54;;;;;;;6.75;2.42;;;33.80;34.90;;;;;;6252898;22;20099;-88